Time;durP1;ratioP1;P1;durP2;ratioP2;P2;SDS_P1;SDS_P2;PMS_P1;PMS_P2;Temp;Humidity;BMP_temperature;BMP_pressure;BME280_temperature;BME280_humidity;BME280_pressure;Samples;Min_cycle;Max_cycle;Signal;HPM_P1;HPM_P2
2022/04/07 00:03:47;;;;;;;0.57;0.40;;;;;;;8.67;64.70;95291.03;10443025;27;98364;-64
2022/04/07 00:08:50;;;;;;;0.60;0.60;;;;;;;8.62;65.09;95280.28;10428181;27;99660;-62
2022/04/07 00:13:55;;;;;;;0.30;0.30;;;;;;;8.51;64.80;95275.34;10434860;27;98385;-64
2022/04/07 00:18:58;;;;;;;0.45;0.30;;;;;;;8.42;64.66;95277.13;10433530;27;99759;-63
2022/04/07 00:24:00;;;;;;;1.55;0.55;;;;;;;8.30;65.53;95266.16;10433550;27;97228;-62
2022/04/07 00:29:05;;;;;;;0.63;0.43;;;;;;;8.24;65.85;95279.00;10439738;27;97900;-62
2022/04/07 00:34:09;;;;;;;0.40;0.30;;;;;;;8.18;65.84;95269.22;10437819;27;99784;-64
2022/04/07 00:39:11;;;;;;;0.30;0.30;;;;;;;8.08;66.26;95271.94;10433689;27;97711;-63
2022/04/07 00:44:15;;;;;;;0.93;0.38;;;;;;;8.03;66.30;95276.78;10434142;27;98448;-64
2022/04/07 00:49:18;;;;;;;0.60;0.40;;;;;;;7.99;66.00;95281.50;10439494;27;96995;-66
2022/04/07 00:54:21;;;;;;;0.55;0.40;;;;;;;7.90;66.48;95262.44;10433059;27;99907;-63
2022/04/07 00:59:25;;;;;;;0.63;0.50;;;;;;;7.85;67.14;95269.88;10432382;27;98503;-65
2022/04/07 01:04:28;;;;;;;0.32;0.30;;;;;;;7.82;67.31;95262.38;10440984;27;98333;-63
2022/04/07 01:09:32;;;;;;;1.25;0.50;;;;;;;7.81;67.46;95278.97;10433569;27;99407;-62
2022/04/07 01:14:36;;;;;;;0.30;0.30;;;;;;;7.72;68.29;95246.91;10433820;27;98235;-63
2022/04/07 01:19:39;;;;;;;0.40;0.30;;;;;;;7.67;68.14;95248.34;10435034;27;99074;-63
2022/04/07 01:24:43;;;;;;;0.30;0.30;;;;;;;7.67;68.34;95261.34;10437853;27;98384;-63
2022/04/07 01:29:46;;;;;;;1.38;0.40;;;;;;;7.70;68.26;95245.41;10444252;27;98463;-63
2022/04/07 01:34:50;;;;;;;0.65;0.40;;;;;;;7.75;68.54;95245.78;10426196;27;99065;-63
2022/04/07 01:39:54;;;;;;;0.40;0.38;;;;;;;7.72;68.62;95259.91;10436129;27;98616;-62
2022/04/07 01:45:01;;;;;;;1.27;0.40;;;;;;;7.76;69.27;95250.03;10434673;27;102831;-62
2022/04/07 01:50:07;;;;;;;0.35;0.35;;;;;;;7.74;69.27;95267.56;10440003;27;100731;-63
2022/04/07 01:55:11;;;;;;;1.13;0.50;;;;;;;7.77;69.22;95264.63;10431698;27;98014;-63
2022/04/07 02:00:15;;;;;;;1.40;0.45;;;;;;;7.74;69.74;95273.56;10433245;27;98743;-62
2022/04/07 02:05:17;;;;;;;0.95;0.50;;;;;;;7.64;70.45;95274.66;10449890;27;97379;-63
2022/04/07 02:10:23;;;;;;;0.90;0.70;;;;;;;7.47;71.78;95271.94;10440184;27;97813;-62
2022/04/07 02:15:26;;;;;;;;;;;;;;;7.45;71.29;95273.88;10427835;27;100689;-63
2022/04/07 02:20:29;;;;;;;0.77;0.60;;;;;;;7.35;72.34;95273.16;10434373;27;97523;-62
2022/04/07 02:25:33;;;;;;;2.03;0.60;;;;;;;7.41;72.91;95264.75;10429182;27;98477;-63
2022/04/07 02:30:36;;;;;;;2.30;0.70;;;;;;;7.40;73.14;95279.50;10429673;27;98402;-62
2022/04/07 02:35:38;;;;;;;0.77;0.50;;;;;;;7.36;73.39;95265.19;10443988;27;97806;-63
2022/04/07 02:40:43;;;;;;;1.80;0.70;;;;;;;7.31;73.74;95272.63;10441794;27;98052;-63
2022/04/07 02:45:45;;;;;;;1.65;0.80;;;;;;;7.27;74.23;95260.09;10434336;27;97253;-62
2022/04/07 02:50:48;;;;;;;0.90;0.60;;;;;;;7.22;74.53;95261.38;10447437;27;99266;-62
2022/04/07 02:55:52;;;;;;;0.80;0.80;;;;;;;7.04;75.70;95255.38;10443129;27;96854;-63
2022/04/07 03:00:55;;;;;;;1.00;0.65;;;;;;;6.97;75.88;95267.31;10431668;27;100651;-62
2022/04/07 03:05:58;;;;;;;1.60;0.90;;;;;;;6.91;76.73;95249.72;10444360;27;97678;-62
2022/04/07 03:11:03;;;;;;;1.25;0.70;;;;;;;6.87;77.00;95258.75;10440108;27;97705;-66
2022/04/07 03:16:07;;;;;;;1.67;0.85;;;;;;;6.88;77.24;95222.28;10429653;27;98610;-65
2022/04/07 03:21:10;;;;;;;0.82;0.80;;;;;;;7.02;76.57;95242.56;10430842;27;98015;-63
2022/04/07 03:26:14;;;;;;;0.65;0.65;;;;;;;7.12;76.85;95239.06;10436281;27;98584;-62
2022/04/07 03:31:17;;;;;;;1.60;1.23;;;;;;;7.15;76.71;95254.34;10435112;27;98480;-62
2022/04/07 03:36:20;;;;;;;3.50;1.15;;;;;;;7.14;76.90;95245.72;10435821;27;98369;-62
2022/04/07 03:41:24;;;;;;;1.80;1.17;;;;;;;7.25;76.94;95220.47;10433189;27;96908;-63
2022/04/07 03:46:28;;;;;;;2.10;1.20;;;;;;;7.18;77.13;95236.66;10453072;27;96849;-62
2022/04/07 03:51:31;;;;;;;2.20;1.38;;;;;;;7.12;77.34;95236.47;10437800;27;98406;-62
2022/04/07 03:56:35;;;;;;;3.40;1.60;;;;;;;7.12;77.46;95239.84;10440257;27;98065;-63
2022/04/07 04:01:39;;;;;;;1.92;1.40;;;;;;;7.11;77.45;95240.84;10448619;27;97500;-66
2022/04/07 04:06:42;;;;;;;3.00;1.45;;;;;;;7.11;77.87;95229.63;10446173;27;99348;-62
2022/04/07 04:11:46;;;;;;;2.38;1.40;;;;;;;7.13;78.06;95218.13;10439289;27;97017;-62
2022/04/07 04:16:49;;;;;;;1.57;1.33;;;;;;;7.19;77.71;95207.13;10435874;27;101282;-62
2022/04/07 04:21:52;;;;;;;3.33;1.65;;;;;;;7.20;78.42;95206.16;10436639;27;98966;-62
2022/04/07 04:26:57;;;;;;;1.73;1.60;;;;;;;7.15;78.72;95198.00;10438149;27;98971;-62
2022/04/07 04:31:59;;;;;;;3.53;2.00;;;;;;;7.05;79.64;95199.88;10443451;27;98353;-66
2022/04/07 04:37:02;;;;;;;3.17;1.92;;;;;;;6.97;79.68;95199.81;10427181;27;96938;-62
2022/04/07 04:42:13;;;;;;;3.70;2.00;;;;;;;6.95;80.22;95192.13;10440736;27;97686;-63
2022/04/07 04:47:18;;;;;;;4.50;2.07;;;;;;;6.97;80.24;95205.00;10439287;27;97048;-63
2022/04/07 04:52:21;;;;;;;;;;;;;;;7.03;80.02;95194.03;10442124;27;98608;-62
2022/04/07 04:57:26;;;;;;;3.58;2.28;;;;;;;7.00;80.41;95179.56;10444140;27;98363;-63
2022/04/07 05:02:29;;;;;;;2.57;2.13;;;;;;;6.97;80.87;95174.69;10439793;27;98399;-62
2022/04/07 05:07:32;;;;;;;3.28;2.70;;;;;;;6.98;81.12;95178.91;10433249;27;97710;-63
2022/04/07 05:12:36;;;;;;;3.22;2.70;;;;;;;6.99;81.33;95190.91;10438706;27;98418;-63
2022/04/07 05:17:39;;;;;;;3.28;2.85;;;;;;;6.96;81.76;95187.81;10436646;27;100530;-63
2022/04/07 05:22:42;;;;;;;3.67;2.95;;;;;;;6.94;82.28;95202.72;10435568;27;98470;-62
2022/04/07 05:27:46;;;;;;;4.75;3.17;;;;;;;6.98;82.26;95209.25;10429850;27;97590;-63
2022/04/07 05:32:49;;;;;;;3.22;2.92;;;;;;;6.95;82.30;95199.13;10447853;27;98563;-63
2022/04/07 05:37:58;;;;;;;3.50;3.20;;;;;;;7.00;82.63;95208.13;10428388;27;98599;-66
2022/04/07 05:43:04;;;;;;;3.33;2.83;;;;;;;7.01;82.52;95201.97;10431243;27;97775;-64
2022/04/07 05:48:07;;;;;;;4.10;2.70;;;;;;;7.02;82.81;95200.19;10435212;27;96878;-63
2022/04/07 05:53:10;;;;;;;4.88;2.58;;;;;;;7.06;82.75;95205.88;10446406;27;100238;-62
2022/04/07 05:58:15;;;;;;;2.65;1.63;;;;;;;7.07;82.70;95203.13;10426871;27;98168;-64
2022/04/07 06:03:18;;;;;;;3.08;1.30;;;;;;;7.13;82.41;95212.94;10434916;27;97362;-63
2022/04/07 06:08:22;;;;;;;4.45;1.25;;;;;;;7.11;82.49;95214.03;10448840;27;96922;-63
2022/04/07 06:13:26;;;;;;;1.65;1.10;;;;;;;7.20;82.34;95216.56;10444272;27;97275;-62
2022/04/07 06:18:31;;;;;;;1.70;1.10;;;;;;;7.22;82.21;95211.22;10441998;27;96835;-62
2022/04/07 06:23:34;;;;;;;1.98;1.30;;;;;;;7.20;82.29;95208.75;10450881;27;96943;-62
2022/04/07 06:28:40;;;;;;;2.97;1.45;;;;;;;7.20;82.00;95208.75;10454477;27;97101;-63
2022/04/07 06:33:43;;;;;;;2.25;1.17;;;;;;;7.15;82.42;95218.78;10440741;27;98471;-62
2022/04/07 06:39:05;;;;;;;1.73;1.20;;;;;;;7.29;82.20;95206.22;10450312;27;97141;-62
2022/04/07 06:44:10;;;;;;;2.22;1.05;;;;;;;7.42;81.34;95193.63;10434770;27;97331;-64
2022/04/07 06:49:13;;;;;;;1.23;0.88;;;;;;;7.53;80.82;95198.56;10431878;27;97130;-63
2022/04/07 06:54:16;;;;;;;0.95;0.77;;;;;;;7.62;80.86;95196.00;10444786;27;100038;-64
2022/04/07 06:59:20;;;;;;;1.35;0.90;;;;;;;7.61;80.44;95200.38;10443129;27;97492;-62
2022/04/07 07:04:23;;;;;;;0.98;0.70;;;;;;;7.73;79.68;95188.72;10428949;27;97021;-63
2022/04/07 07:09:26;;;;;;;0.93;0.70;;;;;;;7.86;78.76;95183.13;10439802;27;96841;-63
2022/04/07 07:14:30;;;;;;;1.63;0.80;;;;;;;7.88;78.19;95175.97;10432583;27;98693;-64
2022/04/07 07:19:33;;;;;;;1.73;0.83;;;;;;;7.95;78.10;95165.75;10443730;27;96908;-63
2022/04/07 07:24:36;;;;;;;1.58;0.70;;;;;;;7.96;78.00;95155.19;10433243;27;96867;-63
2022/04/07 07:29:40;;;;;;;1.75;0.77;;;;;;;7.91;78.68;95157.47;10428424;27;97085;-64
2022/04/07 07:34:43;;;;;;;1.38;0.88;;;;;;;7.83;78.70;95162.63;10420341;28;97855;-62
2022/04/07 07:39:46;;;;;;;3.38;0.85;;;;;;;7.75;78.93;95158.22;10441193;27;96892;-62
2022/04/07 07:44:51;;;;;;;2.92;0.80;;;;;;;7.65;79.65;95167.91;10426321;27;97163;-62
2022/04/07 07:49:54;;;;;;;1.95;1.10;;;;;;;7.59;80.37;95171.94;10427935;27;99154;-63
2022/04/07 07:54:56;;;;;;;1.98;0.93;;;;;;;7.58;80.71;95172.94;10428517;27;97225;-62
2022/04/07 08:00:02;;;;;;;2.47;1.30;;;;;;;7.55;81.07;95175.81;10428955;27;100030;-62
2022/04/07 08:05:06;;;;;;;3.05;1.60;;;;;;;7.56;81.07;95176.63;10421141;28;97349;-63
2022/04/07 08:10:10;;;;;;;3.03;1.30;;;;;;;7.55;81.49;95169.81;10432060;27;96830;-62
2022/04/07 08:15:14;;;;;;;3.05;1.48;;;;;;;7.58;81.80;95185.91;10443931;27;96733;-62
2022/04/07 08:20:17;;;;;;;2.03;1.10;;;;;;;7.52;81.99;95191.72;10426365;27;96915;-62
2022/04/07 08:25:21;;;;;;;2.05;1.40;;;;;;;7.59;81.86;95182.34;10429456;27;96893;-63
2022/04/07 08:30:25;;;;;;;2.20;1.15;;;;;;;7.56;82.47;95190.47;10425106;27;97258;-63
2022/04/07 08:35:28;;;;;;;2.90;1.35;;;;;;;7.57;82.35;95192.06;10427956;27;96789;-64
2022/04/07 08:40:31;;;;;;;1.75;0.98;;;;;;;7.54;82.65;95199.38;10443586;27;96844;-63
2022/04/07 08:45:36;;;;;;;2.13;0.77;;;;;;;7.54;82.54;95197.56;10444416;27;97003;-64
2022/04/07 08:50:41;;;;;;;1.80;1.10;;;;;;;7.52;82.48;95196.13;10433809;27;96942;-64
2022/04/07 08:55:43;;;;;;;1.20;0.60;;;;;;;7.53;82.24;95200.34;10424555;27;96912;-63
2022/04/07 09:00:49;;;;;;;1.23;0.80;;;;;;;7.54;82.07;95189.78;10426206;27;98094;-62
2022/04/07 09:05:54;;;;;;;1.02;0.52;;;;;;;7.55;81.61;95201.00;10354596;28;96735;-64
2022/04/07 09:10:59;;;;;;;1.33;0.70;;;;;;;7.52;81.69;95202.13;10340400;28;98355;-62
2022/04/07 09:16:05;;;;;;;0.98;0.70;;;;;;;7.58;81.48;95205.91;10349635;28;97055;-62
2022/04/07 09:21:18;;;;;;;1.70;0.85;;;;;;;7.60;81.67;95191.78;10352454;28;96988;-64
2022/04/07 09:26:20;;;;;;;1.60;0.77;;;;;;;7.66;82.08;95215.50;10341735;28;97224;-62
2022/04/07 09:31:25;;;;;;;1.92;0.80;;;;;;;7.69;81.67;95202.22;10337095;28;96848;-62
2022/04/07 09:36:28;;;;;;;0.80;0.60;;;;;;;7.78;81.36;95198.69;10346956;28;97078;-63
2022/04/07 09:41:32;;;;;;;1.23;0.73;;;;;;;7.94;81.22;95193.56;10349165;28;97045;-63
2022/04/07 09:46:38;;;;;;;0.70;0.60;;;;;;;8.04;81.30;95195.19;10361753;28;96846;-63
2022/04/07 09:51:45;;;;;;;1.52;0.82;;;;;;;8.09;81.60;95187.75;10356433;28;96917;-64
2022/04/07 09:56:49;;;;;;;1.80;0.70;;;;;;;8.19;81.46;95196.22;10350273;28;96932;-63
2022/04/07 10:01:56;;;;;;;0.80;0.50;;;;;;;8.31;81.64;95197.56;10366383;28;96943;-62
2022/04/07 10:07:01;;;;;;;1.10;0.60;;;;;;;8.38;81.11;95202.09;10444054;27;97998;-63
2022/04/07 10:12:05;;;;;;;2.13;0.90;;;;;;;8.36;81.35;95189.28;10434016;27;96836;-62
2022/04/07 10:17:13;;;;;;;0.60;0.50;;;;;;;8.41;81.29;95186.19;10444201;27;97076;-64
2022/04/07 10:22:46;;;;;;;1.40;0.90;;;;;;;8.51;80.61;95173.84;10424107;27;100066;-62
2022/04/07 10:27:52;;;;;;;1.60;0.90;;;;;;;8.40;80.79;95174.97;10431058;27;96974;-62
2022/04/07 10:32:58;;;;;;;1.10;0.65;;;;;;;8.26;80.84;95173.81;10433893;27;97140;-62
2022/04/07 10:38:02;;;;;;;0.82;0.60;;;;;;;8.24;80.67;95157.53;10430881;27;97925;-63
2022/04/07 10:43:11;;;;;;;2.50;0.60;;;;;;;8.16;80.83;95158.31;10434132;27;97125;-63
2022/04/07 10:48:19;;;;;;;0.60;0.60;;;;;;;8.01;81.65;95156.50;10442074;27;98644;-63
2022/04/07 10:53:25;;;;;;;0.88;0.50;;;;;;;7.95;82.21;95171.75;10429422;27;96958;-62
2022/04/07 10:59:11;;;;;;;0.80;0.60;;;;;;;8.08;81.46;95149.69;10444549;27;97041;-62
2022/04/07 11:04:41;;;;;;;1.00;0.50;;;;;;;8.10;81.44;95147.72;10259858;28;96992;-63
2022/04/07 11:09:47;;;;;;;0.40;0.40;;;;;;;8.10;81.57;95143.38;10261002;28;96914;-63
2022/04/07 11:14:52;;;;;;;0.73;0.38;;;;;;;8.08;81.05;95154.88;10268560;28;98568;-62
2022/04/07 11:20:05;;;;;;;1.98;0.30;;;;;;;8.01;81.13;95146.09;10262365;28;97395;-63
2022/04/07 11:25:10;;;;;;;1.48;0.40;;;;;;;7.92;81.53;95150.47;10264504;28;97063;-62
2022/04/07 11:30:14;;;;;;;0.68;0.45;;;;;;;7.75;81.76;95146.97;10271053;28;96941;-63
2022/04/07 11:35:19;;;;;;;1.93;0.67;;;;;;;7.66;82.44;95155.72;10290619;27;97003;-63
2022/04/07 11:40:22;;;;;;;1.17;0.50;;;;;;;7.80;82.82;95155.13;10444848;27;96806;-62
2022/04/07 11:45:31;;;;;;;0.82;0.50;;;;;;;7.90;83.01;95147.22;10429346;27;97128;-62
2022/04/07 11:50:38;;;;;;;2.03;0.52;;;;;;;7.95;83.06;95134.53;10427383;27;96941;-64
2022/04/07 11:55:41;;;;;;;2.70;0.60;;;;;;;7.89;83.46;95130.81;10426904;27;96932;-65
2022/04/07 12:00:44;;;;;;;2.15;0.50;;;;;;;7.83;83.18;95141.81;10431563;27;97234;-62
2022/04/07 12:05:48;;;;;;;2.97;0.80;;;;;;;7.86;83.44;95132.91;10428524;27;98721;-62
2022/04/07 12:10:52;;;;;;;1.65;0.55;;;;;;;7.64;84.45;95127.28;10426680;27;96848;-62
2022/04/07 12:15:55;;;;;;;2.03;0.60;;;;;;;7.63;85.17;95135.25;10431134;27;97345;-63
2022/04/07 12:21:00;;;;;;;1.95;0.57;;;;;;;7.66;85.29;95132.34;10430542;27;98102;-62
2022/04/07 12:26:04;;;;;;;0.73;0.60;;;;;;;7.76;84.63;95115.63;10424708;27;96748;-63
2022/04/07 12:31:20;;;;;;;2.00;0.57;;;;;;;7.82;84.85;95113.38;10431697;27;97135;-63
2022/04/07 12:36:38;;;;;;;0.75;0.40;;;;;;;7.83;84.34;95126.22;10434695;27;96885;-62
2022/04/07 12:41:43;;;;;;;0.50;0.47;;;;;;;7.84;84.45;95117.47;10426150;27;96909;-63
2022/04/07 12:46:48;;;;;;;1.08;0.32;;;;;;;7.84;84.38;95112.25;10423999;27;97113;-63
2022/04/07 12:52:03;;;;;;;1.27;0.70;;;;;;;7.86;84.64;95102.50;10427557;27;98709;-63
2022/04/07 12:57:10;;;;;;;1.42;0.60;;;;;;;7.86;84.39;95105.09;10426360;27;96776;-62
2022/04/07 13:02:13;;;;;;;1.25;0.75;;;;;;;7.91;84.32;95110.66;10424051;27;96711;-63
2022/04/07 13:07:18;;;;;;;0.60;0.40;;;;;;;7.96;84.06;95095.38;10417766;28;96947;-62
2022/04/07 13:12:21;;;;;;;0.68;0.50;;;;;;;8.04;83.82;95109.38;10427055;27;97399;-63
2022/04/07 13:17:24;;;;;;;1.55;0.50;;;;;;;8.06;83.41;95097.00;10439576;27;98865;-63
2022/04/07 13:22:29;;;;;;;1.95;0.52;;;;;;;8.04;83.80;95093.75;10436574;27;96872;-63
2022/04/07 13:27:32;;;;;;;1.27;0.50;;;;;;;7.96;84.02;95081.53;10427449;27;97719;-63
2022/04/07 13:32:35;;;;;;;0.82;0.50;;;;;;;7.96;83.60;95094.53;10424492;27;96860;-64
2022/04/07 13:37:40;;;;;;;0.93;0.52;;;;;;;7.93;83.93;95090.50;10425890;27;101316;-62
2022/04/07 13:42:43;;;;;;;1.80;0.52;;;;;;;7.90;84.23;95097.81;10425456;27;96954;-63
2022/04/07 13:47:45;;;;;;;1.52;0.57;;;;;;;7.79;84.68;95101.53;10425418;27;99859;-62
2022/04/07 13:52:50;;;;;;;0.80;0.60;;;;;;;7.74;84.91;95086.38;10450146;27;98693;-63
2022/04/07 13:57:52;;;;;;;1.90;0.68;;;;;;;7.71;84.94;95083.28;10441559;27;98733;-62
2022/04/07 14:02:56;;;;;;;1.40;0.90;;;;;;;7.80;84.90;95079.72;10432542;27;96883;-62
2022/04/07 14:08:02;;;;;;;2.27;1.00;;;;;;;7.88;85.06;95066.75;10426476;27;97018;-64
2022/04/07 14:13:05;;;;;;;1.00;0.70;;;;;;;7.95;84.74;95056.53;10428346;27;96865;-62
2022/04/07 14:18:08;;;;;;;1.13;0.70;;;;;;;7.97;84.45;95049.38;10436319;27;96843;-62
2022/04/07 14:23:15;;;;;;;2.85;0.80;;;;;;;8.04;84.69;95039.94;10434251;27;96976;-64
2022/04/07 14:28:18;;;;;;;1.80;0.73;;;;;;;8.11;84.64;95042.72;10433658;27;97722;-63
2022/04/07 14:33:21;;;;;;;1.20;0.70;;;;;;;8.19;84.67;95037.53;10434938;27;97363;-63
2022/04/07 14:38:25;;;;;;;1.05;0.73;;;;;;;8.23;84.26;95028.41;10431760;27;97037;-64
2022/04/07 14:43:28;;;;;;;2.07;0.87;;;;;;;8.18;84.74;95038.50;10433583;27;97739;-63
2022/04/07 14:48:31;;;;;;;1.98;0.70;;;;;;;8.22;84.32;95036.38;10433666;27;96757;-63
2022/04/07 14:53:35;;;;;;;2.03;0.80;;;;;;;8.08;84.60;95051.69;10439977;27;96881;-63
2022/04/07 14:58:39;;;;;;;2.30;0.60;;;;;;;7.98;84.56;95040.63;10442253;27;97558;-62
2022/04/07 15:03:42;;;;;;;1.10;0.60;;;;;;;7.90;84.72;95054.41;10438284;27;99995;-63
2022/04/07 15:08:46;;;;;;;1.08;0.60;;;;;;;7.85;84.71;95051.47;10431102;27;96896;-63
2022/04/07 15:13:49;;;;;;;1.63;0.80;;;;;;;7.88;85.14;95053.75;10433005;27;97986;-64
2022/04/07 15:18:52;;;;;;;2.58;1.08;;;;;;;7.89;85.00;95050.19;10435324;27;96788;-64
2022/04/07 15:23:56;;;;;;;2.17;0.80;;;;;;;7.88;84.73;95038.16;10432271;27;96924;-62
2022/04/07 15:28:59;;;;;;;1.73;1.02;;;;;;;7.87;85.17;95049.50;10429969;27;98488;-62
2022/04/07 15:34:02;;;;;;;1.58;0.90;;;;;;;7.90;85.44;95049.19;10432832;27;96918;-62
2022/04/07 15:39:07;;;;;;;2.17;1.10;;;;;;;7.94;85.29;95045.31;10435316;27;98633;-62
2022/04/07 15:44:10;;;;;;;2.17;0.85;;;;;;;7.98;85.00;95049.22;10435529;27;98681;-63
2022/04/07 15:49:13;;;;;;;1.85;1.10;;;;;;;8.05;85.36;95051.16;10431360;27;96893;-62
2022/04/07 15:54:18;;;;;;;1.10;0.90;;;;;;;8.13;85.01;95038.16;10440123;27;97334;-62
2022/04/07 15:59:23;;;;;;;1.48;0.90;;;;;;;8.11;85.08;95040.13;10437973;27;100060;-62
2022/04/07 16:04:26;;;;;;;2.03;0.73;;;;;;;8.07;85.69;95049.22;10437132;27;97124;-62
2022/04/07 16:09:31;;;;;;;1.85;0.90;;;;;;;8.08;85.69;95048.25;10448735;27;96859;-63
2022/04/07 16:14:33;;;;;;;;;;;;;;;8.07;85.16;95057.03;10459547;27;97947;-62
2022/04/07 16:19:36;;;;;;;1.77;1.02;;;;;;;8.00;85.37;95066.47;10438531;27;96843;-63
2022/04/07 16:24:41;;;;;;;1.70;1.00;;;;;;;7.95;85.87;95052.13;10434562;27;96934;-62
2022/04/07 16:29:44;;;;;;;2.63;1.33;;;;;;;7.96;85.81;95069.38;10429099;27;96921;-68
2022/04/07 16:34:48;;;;;;;12.60;7.97;;;;;;;7.95;85.86;95064.34;10431799;27;96794;-65
2022/04/07 16:39:52;;;;;;;59.70;19.83;;;;;;;7.99;86.10;95055.22;10442946;27;97986;-62
2022/04/07 16:44:55;;;;;;;2.73;1.50;;;;;;;7.98;86.17;95061.41;10438281;27;97082;-62
2022/04/07 16:49:58;;;;;;;3.25;1.08;;;;;;;8.01;85.96;95055.88;10424263;27;97395;-62
2022/04/07 16:55:03;;;;;;;1.67;0.82;;;;;;;8.03;86.33;95059.16;10438503;27;97585;-63
2022/04/07 17:00:07;;;;;;;2.70;1.00;;;;;;;8.02;86.42;95077.50;10443956;27;99888;-62
2022/04/07 17:05:11;;;;;;;1.13;0.90;;;;;;;7.96;86.75;95081.53;10436168;27;96839;-63
2022/04/07 17:10:16;;;;;;;2.40;0.98;;;;;;;7.96;86.75;95084.97;10430098;27;97975;-62
2022/04/07 17:15:19;;;;;;;3.00;1.15;;;;;;;7.94;86.61;95092.13;10429189;27;96962;-63
2022/04/07 17:20:23;;;;;;;1.55;0.70;;;;;;;7.94;86.60;95086.94;10426940;27;96985;-64
2022/04/07 17:25:27;;;;;;;2.28;0.90;;;;;;;7.90;86.79;95090.81;10429078;27;97362;-62
2022/04/07 17:30:30;;;;;;;1.85;0.90;;;;;;;7.93;86.94;95085.28;10433253;27;96754;-63
2022/04/07 17:35:33;;;;;;;2.75;1.02;;;;;;;7.96;87.15;95084.97;10459708;27;96815;-62
2022/04/07 17:40:37;;;;;;;3.08;1.02;;;;;;;7.93;86.45;95100.91;10428313;27;96866;-63
2022/04/07 17:45:41;;;;;;;0.95;0.80;;;;;;;7.88;87.25;95092.75;10424062;27;96931;-64
2022/04/07 17:50:44;;;;;;;0.70;0.70;;;;;;;7.88;87.48;95105.75;10434626;27;96935;-62
2022/04/07 17:55:48;;;;;;;1.58;0.90;;;;;;;7.81;87.62;95102.16;10453589;27;96809;-62
2022/04/07 18:00:51;;;;;;;1.60;0.95;;;;;;;7.79;87.52;95109.31;10453148;27;96890;-62
2022/04/07 18:05:55;;;;;;;1.88;1.02;;;;;;;7.78;88.05;95112.88;10440194;27;96904;-62
2022/04/07 18:10:59;;;;;;;1.10;0.90;;;;;;;7.76;88.25;95120.84;10432710;27;96930;-63
2022/04/07 18:16:02;;;;;;;1.75;0.80;;;;;;;7.75;88.14;95128.78;10432463;27;96943;-62
2022/04/07 18:21:05;;;;;;;8.05;7.00;;;;;;;7.76;88.30;95127.81;10453924;27;97700;-63
2022/04/07 18:26:09;;;;;;;36.58;21.23;;;;;;;7.80;88.44;95142.13;10435882;27;97664;-63
2022/04/07 18:31:12;;;;;;;9.23;5.87;;;;;;;7.82;88.73;95150.59;10451999;27;96849;-62
2022/04/07 18:36:15;;;;;;;1.42;1.02;;;;;;;7.85;88.78;95142.47;10448779;27;96887;-62
2022/04/07 18:41:19;;;;;;;1.55;1.00;;;;;;;7.81;88.33;95148.16;10429659;27;98133;-62
2022/04/07 18:46:22;;;;;;;2.63;0.93;;;;;;;7.82;88.67;95160.97;10439507;27;98930;-63
2022/04/07 18:51:25;;;;;;;1.23;0.93;;;;;;;7.83;88.69;95167.00;10443708;27;99043;-62
2022/04/07 18:56:29;;;;;;;2.45;0.98;;;;;;;7.82;89.06;95183.56;10450982;27;96911;-62
2022/04/07 19:01:32;;;;;;;2.08;1.00;;;;;;;7.82;89.14;95171.38;10443571;27;97037;-62
2022/04/07 19:06:36;;;;;;;1.08;0.80;;;;;;;7.81;89.57;95179.38;10446544;27;97716;-63
2022/04/07 19:11:41;;;;;;;0.85;0.80;;;;;;;7.84;89.34;95190.25;10445422;27;102629;-62
2022/04/07 19:16:44;;;;;;;2.40;1.27;;;;;;;7.89;88.99;95189.78;10438874;27;97641;-62
2022/04/07 19:21:52;;;;;;;0.95;0.77;;;;;;;7.92;89.31;95208.47;10452033;27;96809;-62
2022/04/07 19:26:56;;;;;;;1.15;0.90;;;;;;;7.91;89.47;95204.25;10453872;27;101814;-62
2022/04/07 19:31:59;;;;;;;3.73;2.03;;;;;;;7.98;89.30;95209.66;10439550;27;97081;-62
2022/04/07 19:37:02;;;;;;;23.60;14.65;;;;;;;8.03;89.38;95222.16;10429474;27;98241;-63
2022/04/07 19:42:08;;;;;;;2.30;1.42;;;;;;;8.01;89.00;95231.91;10426491;27;98453;-65
2022/04/07 19:47:11;;;;;;;1.30;0.90;;;;;;;8.05;89.24;95230.63;10421554;27;96818;-64
2022/04/07 19:52:15;;;;;;;1.25;0.77;;;;;;;8.06;89.17;95245.28;10431863;27;96749;-63
2022/04/07 19:57:19;;;;;;;1.65;1.08;;;;;;;8.06;88.92;95242.66;10453646;27;98498;-62
2022/04/07 20:02:22;;;;;;;1.53;0.80;;;;;;;8.06;88.89;95245.28;10422597;27;97263;-63
2022/04/07 20:07:25;;;;;;;2.28;1.10;;;;;;;8.05;88.71;95256.63;10428228;27;97396;-64
2022/04/07 20:12:29;;;;;;;1.88;0.75;;;;;;;8.03;89.25;95274.19;10428864;27;97225;-63
2022/04/07 20:17:32;;;;;;;0.60;0.60;;;;;;;8.07;88.82;95262.53;10427201;27;97707;-62
2022/04/07 20:22:35;;;;;;;1.70;0.63;;;;;;;8.08;89.21;95271.94;10444299;27;96936;-63
2022/04/07 20:27:39;;;;;;;1.40;0.60;;;;;;;8.10;89.06;95273.44;10429858;27;98053;-63
2022/04/07 20:32:42;;;;;;;1.17;0.73;;;;;;;8.06;88.92;95273.88;10426777;27;97005;-63
2022/04/07 20:37:46;;;;;;;1.67;1.00;;;;;;;8.04;89.36;95278.44;10429361;27;97096;-63
2022/04/07 20:42:52;;;;;;;1.58;0.55;;;;;;;8.02;89.28;95275.19;10448794;27;96887;-66
2022/04/07 20:47:54;;;;;;;0.73;0.68;;;;;;;8.10;88.99;95293.41;10441088;27;97471;-63
2022/04/07 20:52:57;;;;;;;1.77;0.93;;;;;;;8.13;89.27;95287.91;10441936;27;98633;-63
2022/04/07 20:58:02;;;;;;;1.35;0.68;;;;;;;8.15;89.33;95285.94;10450483;27;96979;-63
2022/04/07 21:03:05;;;;;;;2.60;0.83;;;;;;;8.17;89.01;95304.84;10432487;27;96920;-63
2022/04/07 21:08:08;;;;;;;0.60;0.60;;;;;;;8.18;89.27;95296.06;10425515;27;97200;-62
2022/04/07 21:13:12;;;;;;;1.92;0.68;;;;;;;8.15;89.30;95301.56;10445001;27;98216;-63
2022/04/07 21:18:15;;;;;;;1.67;0.80;;;;;;;8.14;89.18;95305.94;10438864;27;96910;-62
2022/04/07 21:23:18;;;;;;;1.38;1.27;;;;;;;8.13;89.15;95325.16;10429071;27;96923;-62
2022/04/07 21:28:23;;;;;;;2.42;0.75;;;;;;;8.10;89.58;95314.22;10432165;27;97503;-64
2022/04/07 21:33:25;;;;;;;0.87;0.77;;;;;;;8.12;89.29;95312.28;10437507;27;96795;-63
2022/04/07 21:38:29;;;;;;;1.73;0.93;;;;;;;8.22;89.33;95300.00;10448995;27;97628;-63
2022/04/07 21:43:33;;;;;;;1.45;1.13;;;;;;;8.37;88.15;95300.19;10443426;27;96819;-62
2022/04/07 21:48:36;;;;;;;2.13;0.70;;;;;;;8.51;87.65;95319.59;10432331;27;100342;-62
2022/04/07 21:53:39;;;;;;;1.00;0.70;;;;;;;8.46;87.73;95324.47;10445639;27;96867;-63
2022/04/07 21:58:43;;;;;;;1.27;0.73;;;;;;;8.40;87.69;95346.72;10440111;27;96866;-63
2022/04/07 22:03:46;;;;;;;0.80;0.57;;;;;;;8.33;88.12;95356.94;10434181;27;97296;-62
2022/04/07 22:08:49;;;;;;;1.92;0.80;;;;;;;8.29;88.11;95350.44;10435398;27;96948;-62
2022/04/07 22:13:53;;;;;;;2.05;0.80;;;;;;;8.29;88.14;95349.59;10423846;27;96755;-66
2022/04/07 22:18:56;;;;;;;1.05;0.60;;;;;;;8.28;87.97;95354.00;10446934;27;97047;-62
2022/04/07 22:23:59;;;;;;;1.33;0.65;;;;;;;8.26;88.35;95374.16;10430652;27;97175;-64
2022/04/07 22:29:03;;;;;;;2.40;0.95;;;;;;;8.24;88.53;95381.31;10422657;27;97161;-63
2022/04/07 22:34:06;;;;;;;0.93;0.70;;;;;;;8.20;88.33;95400.78;10425369;27;97142;-62
2022/04/07 22:39:12;;;;;;;1.75;0.82;;;;;;;8.27;88.44;95393.97;10430181;27;98722;-63
2022/04/07 22:44:16;;;;;;;1.52;0.95;;;;;;;8.30;88.17;95398.88;10445437;27;102257;-63
2022/04/07 22:49:19;;;;;;;1.20;0.93;;;;;;;8.24;88.67;95409.91;10454227;27;97095;-63
2022/04/07 22:54:22;;;;;;;3.05;0.90;;;;;;;8.25;88.72;95389.91;10437699;27;100340;-67
2022/04/07 22:59:27;;;;;;;1.65;0.70;;;;;;;8.26;88.33;95396.75;10449175;27;97861;-63
2022/04/07 23:04:29;;;;;;;2.10;0.80;;;;;;;8.24;88.30;95388.28;10450848;27;97020;-62
2022/04/07 23:09:32;;;;;;;1.05;0.57;;;;;;;8.29;88.51;95386.84;10442313;27;96948;-62
2022/04/07 23:14:39;;;;;;;2.65;0.82;;;;;;;8.27;88.49;95388.78;10435256;27;98381;-62
2022/04/07 23:19:42;;;;;;;1.15;0.77;;;;;;;8.23;88.11;95392.66;10448875;27;97212;-63
2022/04/07 23:24:45;;;;;;;1.17;0.63;;;;;;;8.20;88.67;95395.56;10430954;27;98410;-62
2022/04/07 23:29:49;;;;;;;1.15;0.73;;;;;;;8.15;88.48;95390.00;10424163;27;96747;-62
2022/04/07 23:34:54;;;;;;;1.20;0.53;;;;;;;8.21;88.33;95373.78;10422212;27;98879;-62
2022/04/07 23:39:56;;;;;;;1.30;0.80;;;;;;;8.19;88.18;95378.34;10430108;27;99980;-62
2022/04/07 23:45:01;;;;;;;2.35;0.90;;;;;;;8.11;88.29;95375.69;10428713;27;97181;-62
2022/04/07 23:50:04;;;;;;;2.60;0.70;;;;;;;8.14;88.38;95372.78;10418767;27;96769;-62
2022/04/07 23:55:08;;;;;;;1.65;1.00;;;;;;;8.07;88.67;95384.78;10427105;27;98687;-62
